Time;durP1;ratioP1;P1;durP2;ratioP2;P2;SDS_P1;SDS_P2;PMS_P1;PMS_P2;Temp;Humidity;BMP_temperature;BMP_pressure;BME280_temperature;BME280_humidity;BME280_pressure;Samples;Min_cycle;Max_cycle;Signal;HPM_P1;HPM_P2
2023/06/05 00:01:46;;;;;;;9.50;4.30;;;20.10;99.90;;;;;;5094666;28;20046;-76
2023/06/05 00:04:13;;;;;;;10.13;3.83;;;20.10;99.90;;;;;;5094244;28;20028;-76
2023/06/05 00:06:40;;;;;;;7.68;4.22;;;20.10;99.90;;;;;;5094376;28;20027;-76
2023/06/05 00:09:06;;;;;;;9.95;4.10;;;20.10;99.90;;;;;;5095132;28;20103;-76
2023/06/05 00:11:32;;;;;;;13.77;4.57;;;20.10;99.90;;;;;;5114148;28;20196;-77
2023/06/05 00:13:58;;;;;;;8.18;3.35;;;20.20;99.90;;;;;;5114284;28;20026;-76
2023/06/05 00:16:25;;;;;;;9.80;3.85;;;20.20;99.90;;;;;;5114218;28;20031;-75
2023/06/05 00:18:51;;;;;;;9.13;4.10;;;20.20;99.90;;;;;;5095574;28;20201;-76
2023/06/05 00:21:17;;;;;;;12.27;3.92;;;20.20;99.90;;;;;;5114509;28;20103;-76
2023/06/05 00:23:43;;;;;;;11.02;3.70;;;20.20;99.90;;;;;;5113632;28;20027;-77
2023/06/05 00:26:09;;;;;;;8.63;3.88;;;20.20;99.90;;;;;;5114096;28;20032;-76
2023/06/05 00:28:35;;;;;;;9.63;4.18;;;20.20;99.90;;;;;;5113925;28;20164;-77
2023/06/05 00:31:02;;;;;;;8.35;3.55;;;20.20;99.90;;;;;;5100458;28;20020;-76
2023/06/05 00:33:30;;;;;;;11.98;4.80;;;20.30;99.90;;;;;;5093602;28;20060;-77
2023/06/05 00:35:56;;;;;;;10.07;3.80;;;20.30;99.90;;;;;;5093508;28;20031;-77
2023/06/05 00:38:22;;;;;;;13.80;4.32;;;20.30;99.90;;;;;;5075117;28;20032;-77
2023/06/05 00:40:48;;;;;;;8.07;3.30;;;20.20;99.90;;;;;;5108833;28;20028;-77
2023/06/05 00:43:14;;;;;;;12.93;4.40;;;20.30;99.90;;;;;;5114170;28;20063;-76
2023/06/05 00:45:40;;;;;;;11.48;3.88;;;20.30;99.90;;;;;;5113501;28;20023;-77
2023/06/05 00:48:07;;;;;;;9.30;3.92;;;20.30;99.90;;;;;;5113603;28;20137;-76
2023/06/05 00:50:34;;;;;;;;;;;20.30;99.90;;;;;;5114187;28;20045;-76
2023/06/05 00:53:04;;;;;;;8.25;3.90;;;20.30;99.90;;;;;;5113519;28;20375;-76
2023/06/05 00:55:30;;;;;;;7.90;3.70;;;20.30;99.90;;;;;;5114284;28;20076;-76
2023/06/05 00:57:57;;;;;;;14.90;3.78;;;20.30;99.90;;;;;;5113853;28;20126;-76
2023/06/05 01:00:23;;;;;;;;;;;20.40;99.90;;;;;;5105406;28;20111;-76
2023/06/05 01:02:53;;;;;;;11.50;3.55;;;20.40;99.90;;;;;;5092452;28;19904;-74
2023/06/05 01:05:20;;;;;;;7.15;3.35;;;20.40;99.90;;;;;;5092713;28;20069;-76
2023/06/05 01:07:48;;;;;;;9.32;3.60;;;20.40;99.90;;;;;;5092844;28;20353;-79
2023/06/05 01:10:14;;;;;;;7.45;3.40;;;20.40;99.90;;;;;;5103590;28;20074;-77
2023/06/05 01:12:45;;;;;;;9.25;3.63;;;20.30;99.90;;;;;;5113727;28;20071;-77
2023/06/05 01:15:12;;;;;;;8.48;3.63;;;20.30;99.90;;;;;;5113194;28;20028;-76
2023/06/05 01:17:39;;;;;;;7.65;4.00;;;20.30;99.90;;;;;;5113023;28;20024;-76
2023/06/05 01:20:09;;;;;;;7.15;4.03;;;20.30;99.90;;;;;;5113082;28;20107;-77
2023/06/05 01:22:37;;;;;;;11.73;4.30;;;20.30;99.90;;;;;;5112804;28;20016;-76
2023/06/05 01:25:07;;;;;;;8.93;4.35;;;20.20;99.90;;;;;;5112712;28;20090;-76
2023/06/05 01:27:42;;;;;;;9.98;4.32;;;20.10;99.90;;;;;;5112722;28;20055;-78
2023/06/05 01:30:24;;;;;;;7.75;3.83;;;20.00;99.90;;;;;;5106415;28;20035;-75
2023/06/05 01:33:01;;;;;;;8.30;3.90;;;20.00;99.90;;;;;;5092750;28;20020;-76
2023/06/05 01:35:33;;;;;;;6.80;3.88;;;19.90;99.90;;;;;;5092592;28;20059;-76
2023/06/05 01:38:02;;;;;;;13.15;3.95;;;19.90;99.90;;;;;;5092249;28;20035;-78
2023/06/05 01:40:30;;;;;;;12.02;4.57;;;19.90;99.90;;;;;;5104968;28;20027;-75
2023/06/05 01:42:59;;;;;;;11.07;4.43;;;19.90;99.90;;;;;;5094569;28;20091;-76
2023/06/05 01:45:27;;;;;;;7.55;3.80;;;19.90;99.90;;;;;;5112129;28;20032;-76
2023/06/05 01:47:54;;;;;;;10.18;4.10;;;19.90;99.90;;;;;;5112574;28;20047;-76
2023/06/05 01:50:20;;;;;;;11.18;4.18;;;19.90;99.90;;;;;;5112723;28;20027;-77
2023/06/05 01:52:47;;;;;;;8.80;4.10;;;19.90;99.90;;;;;;5112246;28;20110;-77
2023/06/05 01:55:20;;;;;;;;;;;19.90;99.90;;;;;;5112851;28;20103;-77
2023/06/05 01:57:46;;;;;;;9.50;3.92;;;19.80;99.90;;;;;;5112637;28;19930;-77
2023/06/05 02:00:18;;;;;;;11.65;4.35;;;19.80;99.90;;;;;;5087135;28;20024;-76
2023/06/05 02:02:46;;;;;;;9.35;4.30;;;19.80;99.90;;;;;;5107289;28;20314;-76
2023/06/05 02:05:14;;;;;;;8.30;4.03;;;19.80;99.90;;;;;;5091913;28;20068;-77
2023/06/05 02:07:49;;;;;;;8.48;3.72;;;19.80;99.90;;;;;;5073609;28;20035;-78
2023/06/05 02:10:18;;;;;;;14.55;4.45;;;19.80;99.90;;;;;;5102081;28;20036;-77
2023/06/05 02:12:44;;;;;;;12.35;3.90;;;19.80;99.90;;;;;;5111972;28;20080;-77
2023/06/05 02:15:14;;;;;;;11.23;3.83;;;19.80;99.90;;;;;;5111827;28;20027;-75
2023/06/05 02:18:02;;;;;;;11.93;4.00;;;20.00;99.90;;;;;;5112462;28;20041;-75
2023/06/05 02:20:29;;;;;;;6.82;3.45;;;20.00;99.90;;;;;;5111924;28;20035;-76
2023/06/05 02:22:55;;;;;;;9.68;3.85;;;20.00;99.90;;;;;;5111656;28;20030;-77
2023/06/05 02:25:25;;;;;;;7.68;3.80;;;20.10;99.90;;;;;;5112205;28;20444;-76
2023/06/05 02:27:57;;;;;;;9.52;3.63;;;20.10;99.90;;;;;;5111919;28;20038;-76
2023/06/05 02:30:23;;;;;;;7.25;3.10;;;20.10;99.90;;;;;;5103433;28;20016;-76
2023/06/05 02:32:56;;;;;;;12.13;4.22;;;20.00;99.90;;;;;;5073099;28;20028;-77
2023/06/05 02:35:23;;;;;;;10.25;3.80;;;20.10;99.90;;;;;;5091641;28;20468;-76
2023/06/05 02:37:49;;;;;;;8.75;3.65;;;20.10;99.90;;;;;;5091288;28;20028;-76
2023/06/05 02:40:15;;;;;;;8.13;3.85;;;20.00;99.90;;;;;;5102334;28;20035;-76
2023/06/05 02:42:42;;;;;;;10.48;3.60;;;20.00;99.90;;;;;;5110966;28;20119;-77
2023/06/05 02:45:08;;;;;;;8.70;3.90;;;20.00;99.90;;;;;;5092176;28;20032;-77
2023/06/05 02:47:35;;;;;;;10.43;3.33;;;20.00;99.90;;;;;;5110873;28;20471;-76
2023/06/05 02:50:03;;;;;;;9.48;3.92;;;20.00;99.90;;;;;;5092027;28;20023;-76
2023/06/05 02:52:32;;;;;;;11.63;3.92;;;20.00;99.90;;;;;;5110640;28;20356;-77
2023/06/05 02:54:58;;;;;;;8.40;3.88;;;20.00;99.90;;;;;;5110788;28;20077;-76
2023/06/05 02:57:26;;;;;;;9.80;3.75;;;19.90;99.90;;;;;;5092784;28;20479;-76
2023/06/05 02:59:52;;;;;;;6.63;3.50;;;19.80;99.90;;;;;;5107394;28;20027;-77
2023/06/05 03:02:19;;;;;;;9.13;3.70;;;19.80;99.90;;;;;;5091176;28;20035;-76
2023/06/05 03:04:48;;;;;;;11.63;4.05;;;19.80;99.90;;;;;;5091388;28;20083;-77
2023/06/05 03:07:15;;;;;;;9.80;3.70;;;19.80;99.90;;;;;;5091147;28;20028;-75
2023/06/05 03:09:41;;;;;;;9.32;3.85;;;19.80;99.90;;;;;;5097202;28;20012;-76
2023/06/05 03:12:07;;;;;;;8.75;3.72;;;19.80;99.90;;;;;;5093227;28;20502;-78
2023/06/05 03:14:33;;;;;;;9.95;4.40;;;19.80;99.90;;;;;;5111315;28;20020;-78
2023/06/05 03:17:00;;;;;;;12.00;4.43;;;19.80;99.90;;;;;;5111561;28;20031;-75
2023/06/05 03:19:26;;;;;;;;;;;19.80;99.90;;;;;;5111804;28;20109;-76
2023/06/05 03:21:53;;;;;;;7.55;3.60;;;19.70;99.90;;;;;;5111474;28;19904;-77
2023/06/05 03:24:19;;;;;;;7.45;3.97;;;19.70;99.90;;;;;;5112370;28;20472;-76
2023/06/05 03:26:46;;;;;;;9.43;3.92;;;19.60;99.90;;;;;;5115744;28;20103;-76
2023/06/05 03:29:12;;;;;;;9.23;4.13;;;19.70;99.90;;;;;;5116181;28;20471;-76
2023/06/05 03:31:38;;;;;;;10.80;4.10;;;19.60;99.90;;;;;;5097074;28;20062;-76
2023/06/05 03:34:05;;;;;;;7.68;4.05;;;19.60;99.90;;;;;;5095153;28;20032;-76
2023/06/05 03:36:34;;;;;;;5.65;3.35;;;19.60;99.90;;;;;;5095002;28;20039;-75
2023/06/05 03:39:00;;;;;;;13.88;4.13;;;19.60;99.90;;;;;;5094989;28;20032;-76
2023/06/05 03:41:26;;;;;;;7.50;3.85;;;19.70;99.90;;;;;;5115156;28;20020;-76
2023/06/05 03:43:53;;;;;;;8.15;4.20;;;19.70;99.90;;;;;;5115209;28;20099;-77
2023/06/05 03:46:19;;;;;;;9.07;3.88;;;19.70;99.90;;;;;;5115400;28;20022;-77
2023/06/05 03:48:46;;;;;;;11.80;4.05;;;19.70;99.90;;;;;;5114847;28;20050;-76
2023/06/05 03:51:13;;;;;;;7.30;4.00;;;19.80;99.90;;;;;;5115679;28;20102;-76
2023/06/05 03:53:43;;;;;;;;;;;19.80;99.90;;;;;;5115414;28;20369;-76
2023/06/05 03:56:09;;;;;;;8.15;3.92;;;19.90;99.90;;;;;;5115379;28;19904;-77
2023/06/05 03:58:35;;;;;;;13.35;3.92;;;19.90;99.90;;;;;;5115521;28;20036;-76
2023/06/05 04:01:01;;;;;;;10.70;4.60;;;19.80;99.90;;;;;;5101225;28;20474;-76
2023/06/05 04:03:28;;;;;;;10.63;4.50;;;19.80;99.90;;;;;;5094484;28;20056;-76
2023/06/05 04:05:54;;;;;;;8.02;3.75;;;19.80;99.90;;;;;;5094437;28;20031;-76
2023/06/05 04:08:20;;;;;;;14.45;4.07;;;19.80;99.90;;;;;;5094610;28;20379;-77
2023/06/05 04:10:46;;;;;;;10.35;3.92;;;19.80;99.90;;;;;;5109556;28;20483;-76
2023/06/05 04:13:13;;;;;;;7.70;4.28;;;19.80;99.90;;;;;;5114717;28;20035;-77
2023/06/05 04:15:39;;;;;;;14.80;4.82;;;19.80;99.90;;;;;;5114560;28;20076;-75
2023/06/05 04:18:05;;;;;;;11.25;4.38;;;19.80;99.90;;;;;;5115990;28;20036;-77
2023/06/05 04:20:31;;;;;;;12.27;4.32;;;19.80;99.90;;;;;;5115797;28;20054;-76
2023/06/05 04:22:57;;;;;;;6.90;4.00;;;19.80;99.90;;;;;;5097355;28;20027;-75
2023/06/05 04:25:23;;;;;;;10.45;4.15;;;19.80;99.90;;;;;;5097585;28;20435;-78
2023/06/05 04:27:51;;;;;;;7.50;4.00;;;19.80;99.90;;;;;;5115801;28;20374;-76
2023/06/05 04:30:17;;;;;;;9.48;4.20;;;19.80;99.90;;;;;;5108344;28;20093;-78
2023/06/05 04:32:52;;;;;;;11.73;4.63;;;19.70;99.90;;;;;;5095497;28;20021;-76
2023/06/05 04:35:19;;;;;;;10.20;4.50;;;19.70;99.90;;;;;;5095023;28;20016;-76
2023/06/05 04:37:46;;;;;;;13.73;4.50;;;19.70;99.90;;;;;;5094200;28;20060;-76
2023/06/05 04:40:12;;;;;;;17.42;5.03;;;19.80;99.90;;;;;;5105178;28;20061;-77
2023/06/05 04:42:38;;;;;;;15.35;4.70;;;19.80;99.90;;;;;;5115592;28;20012;-76
2023/06/05 04:45:07;;;;;;;11.93;4.70;;;19.80;99.90;;;;;;5115171;28;20032;-76
2023/06/05 04:47:36;;;;;;;9.35;4.50;;;19.80;99.90;;;;;;5115531;28;20027;-77
2023/06/05 04:50:06;;;;;;;9.90;4.13;;;19.80;99.90;;;;;;5115325;28;20026;-77
2023/06/05 04:52:34;;;;;;;9.05;4.80;;;19.70;99.90;;;;;;5115484;28;20024;-77
2023/06/05 04:55:04;;;;;;;9.55;4.72;;;19.80;99.90;;;;;;5115731;28;20104;-76
2023/06/05 04:57:30;;;;;;;12.07;4.30;;;19.70;99.90;;;;;;5115249;28;20074;-77
2023/06/05 05:00:00;;;;;;;12.07;4.43;;;19.70;99.90;;;;;;5091764;28;20020;-77
2023/06/05 05:02:26;;;;;;;12.45;4.65;;;19.60;99.90;;;;;;5094690;28;20028;-77
2023/06/05 05:04:52;;;;;;;11.75;4.65;;;19.60;99.90;;;;;;5094340;28;20021;-77
2023/06/05 05:07:18;;;;;;;12.43;4.97;;;19.60;99.90;;;;;;5094575;28;20028;-76
2023/06/05 05:09:45;;;;;;;11.02;4.72;;;19.60;99.90;;;;;;5100063;28;20351;-76
2023/06/05 05:12:11;;;;;;;11.20;4.93;;;19.60;99.90;;;;;;5095613;28;20042;-75
2023/06/05 05:14:40;;;;;;;14.27;5.88;;;19.80;99.90;;;;;;5095447;28;20077;-76
2023/06/05 05:17:06;;;;;;;8.70;5.00;;;19.80;99.90;;;;;;5114256;28;20417;-76
2023/06/05 05:19:32;;;;;;;9.48;4.82;;;19.80;99.90;;;;;;5115103;28;20351;-76
2023/06/05 05:21:58;;;;;;;15.32;5.43;;;19.90;99.90;;;;;;5096351;28;20024;-76
2023/06/05 05:24:24;;;;;;;10.52;4.78;;;19.90;99.90;;;;;;5114503;28;20121;-77
2023/06/05 05:26:52;;;;;;;15.38;4.93;;;19.90;99.90;;;;;;5114677;28;20092;-77
2023/06/05 05:29:18;;;;;;;10.98;4.53;;;19.70;99.90;;;;;;5113977;28;20015;-76
2023/06/05 05:31:45;;;;;;;15.98;5.53;;;19.70;99.90;;;;;;5094053;28;20036;-76
2023/06/05 05:34:11;;;;;;;12.02;5.85;;;19.80;99.90;;;;;;5093647;28;20106;-76
2023/06/05 05:36:37;;;;;;;12.95;4.60;;;19.90;99.90;;;;;;5093597;28;20075;-77
2023/06/05 05:39:04;;;;;;;11.18;4.97;;;19.90;99.90;;;;;;5093664;28;20028;-76
2023/06/05 05:41:30;;;;;;;10.10;4.88;;;20.10;99.90;;;;;;5113498;28;20433;-76
2023/06/05 05:43:56;;;;;;;13.15;4.65;;;20.50;99.90;;;;;;5113156;28;20123;-76
2023/06/05 05:46:22;;;;;;;10.52;4.93;;;20.50;99.90;;;;;;5113017;28;20098;-76
2023/06/05 05:48:48;;;;;;;11.68;4.72;;;20.40;99.90;;;;;;5112787;28;20024;-76
2023/06/05 05:51:15;;;;;;;10.70;4.68;;;20.40;99.90;;;;;;5113062;28;20447;-77
2023/06/05 05:53:41;;;;;;;15.18;4.85;;;20.50;99.90;;;;;;5112904;28;20032;-76
2023/06/05 05:56:07;;;;;;;12.10;5.15;;;20.40;99.90;;;;;;5112489;28;20032;-76
2023/06/05 05:58:33;;;;;;;10.10;4.53;;;20.40;99.90;;;;;;5112244;28;20042;-76
2023/06/05 06:01:00;;;;;;;12.02;4.55;;;20.40;99.90;;;;;;5099034;28;20059;-77
2023/06/05 06:03:26;;;;;;;11.70;4.63;;;20.40;99.90;;;;;;5091936;28;20024;-77
2023/06/05 06:05:53;;;;;;;13.27;4.75;;;20.40;99.90;;;;;;5074402;28;20425;-77
2023/06/05 06:08:20;;;;;;;12.73;4.78;;;20.50;99.90;;;;;;5092808;28;20077;-77
2023/06/05 06:10:46;;;;;;;11.35;4.75;;;20.40;99.90;;;;;;5106603;28;20444;-78
2023/06/05 06:13:13;;;;;;;11.43;4.63;;;20.30;99.90;;;;;;5112358;28;20374;-78
2023/06/05 06:15:39;;;;;;;;;;;20.10;99.90;;;;;;5113197;28;20020;-78
2023/06/05 06:18:06;;;;;;;8.20;3.80;;;20.00;99.90;;;;;;5112659;28;20288;-77
2023/06/05 06:20:35;;;;;;;9.70;4.70;;;19.90;99.90;;;;;;5113482;28;20031;-78
2023/06/05 06:23:05;;;;;;;14.45;4.82;;;19.80;99.90;;;;;;5112940;28;20432;-77
2023/06/05 06:25:31;;;;;;;9.38;4.72;;;19.60;99.90;;;;;;5112949;28;20058;-76
2023/06/05 06:27:59;;;;;;;16.42;5.68;;;19.50;99.90;;;;;;5094063;28;20035;-77
2023/06/05 06:30:27;;;;;;;13.10;4.88;;;19.50;99.90;;;;;;5103887;28;20023;-77
2023/06/05 06:32:57;;;;;;;9.13;4.50;;;19.50;99.90;;;;;;5092327;28;20035;-76
2023/06/05 06:35:24;;;;;;;7.78;4.25;;;19.30;99.90;;;;;;5073932;28;20024;-76
2023/06/05 06:37:52;;;;;;;;;;;19.10;99.90;;;;;;5092611;28;20024;-75
2023/06/05 06:40:18;;;;;;;13.98;5.10;;;19.10;99.90;;;;;;5103532;28;20274;-77
2023/06/05 06:42:48;;;;;;;11.90;4.00;;;19.20;99.90;;;;;;5113698;28;20028;-79
2023/06/05 06:45:15;;;;;;;12.98;4.70;;;19.20;99.90;;;;;;5112786;28;20151;-77
2023/06/05 06:47:42;;;;;;;8.07;4.35;;;19.20;99.90;;;;;;5112557;28;20058;-76
2023/06/05 06:50:09;;;;;;;11.35;3.97;;;19.20;99.90;;;;;;5112705;28;20031;-77
2023/06/05 06:52:35;;;;;;;6.32;4.25;;;19.00;99.90;;;;;;5112403;28;20123;-76
2023/06/05 06:55:01;;;;;;;7.55;4.70;;;18.80;99.90;;;;;;5112450;28;20093;-76
2023/06/05 06:57:27;;;;;;;9.63;4.65;;;18.60;99.90;;;;;;5112419;28;20080;-78
2023/06/05 06:59:53;;;;;;;10.00;4.05;;;18.50;99.90;;;;;;5109846;28;20067;-76
2023/06/05 07:02:22;;;;;;;8.77;3.70;;;18.50;99.90;;;;;;5096416;28;20024;-76
2023/06/05 07:04:49;;;;;;;14.95;4.22;;;18.30;99.90;;;;;;5096194;28;20032;-75
2023/06/05 07:07:17;;;;;;;10.48;4.80;;;18.10;99.90;;;;;;5096183;28;20032;-76
2023/06/05 07:09:44;;;;;;;10.65;4.38;;;18.00;99.90;;;;;;5102075;28;20101;-76
2023/06/05 07:12:12;;;;;;;9.73;3.95;;;17.90;99.90;;;;;;5116514;28;20038;-77
2023/06/05 07:14:39;;;;;;;8.45;4.13;;;17.90;99.90;;;;;;5116372;28;20020;-76
2023/06/05 07:17:06;;;;;;;8.60;3.80;;;18.00;99.90;;;;;;5115914;28;20051;-77
2023/06/05 07:19:33;;;;;;;7.28;4.25;;;18.00;99.90;;;;;;5116335;28;20509;-78
2023/06/05 07:22:01;;;;;;;9.18;4.78;;;18.00;99.90;;;;;;5116707;28;20485;-76
2023/06/05 07:24:30;;;;;;;11.60;4.60;;;17.80;99.90;;;;;;5097302;28;20510;-76
2023/06/05 07:26:59;;;;;;;10.82;5.13;;;17.70;99.90;;;;;;5115946;28;20034;-78
2023/06/05 07:29:26;;;;;;;15.13;4.50;;;17.70;99.90;;;;;;5115547;28;20088;-76
2023/06/05 07:31:54;;;;;;;10.35;4.70;;;17.70;99.90;;;;;;5056911;28;20029;-76
2023/06/05 07:34:21;;;;;;;10.55;4.78;;;17.80;99.90;;;;;;5074774;28;20025;-77
2023/06/05 07:36:51;;;;;;;9.88;4.38;;;17.90;99.90;;;;;;5074844;28;20360;-77
2023/06/05 07:39:18;;;;;;;8.95;4.70;;;18.10;99.90;;;;;;5080350;28;20029;-77
2023/06/05 07:41:44;;;;;;;11.48;4.53;;;18.10;99.90;;;;;;5115312;28;20035;-75
2023/06/05 07:44:12;;;;;;;12.35;3.90;;;18.30;99.90;;;;;;5115414;28;20035;-76
2023/06/05 07:46:46;;;;;;;7.05;3.80;;;18.40;99.90;;;;;;5115461;28;20107;-75
2023/06/05 07:49:12;;;;;;;7.15;3.75;;;18.40;99.90;;;;;;5115194;28;20063;-76
2023/06/05 07:51:39;;;;;;;10.80;3.70;;;18.50;99.90;;;;;;5115015;28;20024;-76
2023/06/05 07:54:09;;;;;;;;;;;19.10;99.90;;;;;;5096507;28;20038;-75
2023/06/05 07:56:36;;;;;;;11.70;3.50;;;19.50;99.90;;;;;;5130025;27;19908;-76
2023/06/05 07:59:03;;;;;;;11.18;3.70;;;19.80;99.90;;;;;;5096015;28;20051;-76
2023/06/05 08:01:31;;;;;;;11.13;3.70;;;20.20;99.90;;;;;;5078580;28;20020;-76
2023/06/05 08:03:57;;;;;;;6.60;3.47;;;20.90;99.90;;;;;;5094007;28;20329;-79
2023/06/05 08:06:24;;;;;;;6.60;3.50;;;21.10;99.90;;;;;;5094291;28;20053;-77
2023/06/05 08:08:51;;;;;;;7.85;3.05;;;21.20;99.90;;;;;;5094442;28;20327;-77
2023/06/05 08:11:17;;;;;;;6.35;2.80;;;21.20;99.90;;;;;;5113407;28;20398;-78
2023/06/05 08:13:43;;;;;;;11.63;2.70;;;21.40;99.90;;;;;;5114301;28;20039;-76
2023/06/05 08:16:09;;;;;;;7.65;3.97;;;21.30;99.90;;;;;;5114054;28;20035;-76
2023/06/05 08:18:35;;;;;;;4.50;2.80;;;21.50;99.90;;;;;;5115036;28;20043;-78
2023/06/05 08:21:02;;;;;;;5.25;2.97;;;21.50;99.90;;;;;;5115598;28;20056;-76
2023/06/05 08:23:29;;;;;;;9.05;3.42;;;21.30;99.90;;;;;;5115000;28;20412;-78
2023/06/05 08:25:55;;;;;;;6.82;3.15;;;21.10;99.90;;;;;;5115003;28;20063;-77
2023/06/05 08:28:21;;;;;;;6.05;3.15;;;21.20;99.90;;;;;;5115373;28;20455;-78
2023/06/05 08:30:48;;;;;;;11.50;3.40;;;21.10;99.90;;;;;;5084745;28;20024;-77
2023/06/05 08:33:14;;;;;;;6.47;3.03;;;21.10;99.90;;;;;;5076280;28;20096;-78
2023/06/05 08:35:41;;;;;;;11.60;3.60;;;21.00;99.90;;;;;;5094858;28;20027;-78
2023/06/05 08:38:07;;;;;;;17.90;4.00;;;20.80;99.90;;;;;;5094523;28;20040;-77
2023/06/05 08:40:36;;;;;;;13.30;4.13;;;20.70;99.90;;;;;;5108050;28;20035;-79
2023/06/05 08:43:03;;;;;;;14.65;4.28;;;20.60;99.90;;;;;;5115119;28;20023;-79
2023/06/05 08:45:30;;;;;;;;;;;20.60;99.90;;;;;;5114966;28;20076;-78
2023/06/05 08:48:00;;;;;;;17.20;3.88;;;20.40;99.90;;;;;;5114466;28;19980;-75
2023/06/05 08:50:30;;;;;;;12.75;3.67;;;20.40;99.90;;;;;;5114383;28;20026;-77
2023/06/05 08:53:00;;;;;;;15.60;3.45;;;20.30;99.90;;;;;;5114490;28;20027;-78
2023/06/05 08:55:27;;;;;;;19.48;4.00;;;20.20;99.90;;;;;;5114177;28;20146;-78
2023/06/05 08:57:54;;;;;;;11.13;3.35;;;20.10;99.90;;;;;;5113719;28;20028;-77
2023/06/05 09:00:22;;;;;;;10.50;3.80;;;20.00;99.90;;;;;;5106032;28;20433;-75
2023/06/05 09:02:48;;;;;;;11.65;3.42;;;20.00;99.90;;;;;;5093424;28;20012;-76
2023/06/05 09:05:17;;;;;;;9.20;3.28;;;19.90;99.90;;;;;;5074935;28;20024;-76
2023/06/05 09:07:44;;;;;;;14.93;4.63;;;19.70;99.90;;;;;;5108263;28;20051;-77
2023/06/05 09:10:22;;;;;;;14.88;4.05;;;19.70;99.90;;;;;;5103236;28;20479;-78
2023/06/05 09:13:00;;;;;;;19.05;4.47;;;19.50;99.90;;;;;;5095284;28;20147;-78
2023/06/05 09:15:28;;;;;;;15.65;4.18;;;19.50;99.90;;;;;;5113592;28;20114;-76
2023/06/05 09:18:11;;;;;;;13.82;4.53;;;19.30;99.90;;;;;;5113605;28;20043;-76
2023/06/05 09:20:39;;;;;;;10.35;4.80;;;19.10;99.90;;;;;;5113472;28;20020;-77
2023/06/05 09:23:28;;;;;;;12.48;4.32;;;19.00;99.90;;;;;;5112764;28;20054;-77
2023/06/05 09:25:59;;;;;;;10.43;4.45;;;19.00;99.90;;;;;;5112893;28;20020;-76
2023/06/05 09:28:26;;;;;;;19.63;4.40;;;18.90;99.90;;;;;;5113590;28;20103;-75
2023/06/05 09:31:03;;;;;;;13.82;4.30;;;18.80;99.90;;;;;;5100631;28;20172;-74
2023/06/05 09:33:34;;;;;;;16.75;4.32;;;18.60;99.90;;;;;;5092494;28;20072;-75
2023/06/05 09:36:11;;;;;;;16.73;4.57;;;18.50;99.90;;;;;;5092779;28;20329;-76
2023/06/05 09:38:41;;;;;;;11.20;4.22;;;18.40;99.90;;;;;;5092387;28;20432;-78
2023/06/05 09:41:09;;;;;;;8.95;5.03;;;18.20;99.90;;;;;;5110243;28;20228;-76
2023/06/05 09:43:36;;;;;;;9.48;4.72;;;18.10;99.90;;;;;;5112458;28;20391;-78
2023/06/05 09:46:13;;;;;;;9.65;4.93;;;18.00;99.90;;;;;;5112289;28;20038;-77
2023/06/05 09:48:40;;;;;;;11.30;5.20;;;17.90;99.90;;;;;;5093939;28;20024;-76
2023/06/05 09:51:13;;;;;;;11.05;5.15;;;17.90;99.90;;;;;;5111968;28;20031;-75
2023/06/05 09:53:47;;;;;;;9.52;4.18;;;17.80;99.90;;;;;;5112345;28;20027;-76
2023/06/05 09:56:18;;;;;;;9.52;4.43;;;17.90;99.90;;;;;;5112575;28;20087;-78
2023/06/05 09:58:50;;;;;;;12.23;4.50;;;17.90;99.90;;;;;;5112700;28;20032;-76
2023/06/05 10:01:28;;;;;;;9.80;4.25;;;18.00;99.90;;;;;;5096508;28;20028;-75
2023/06/05 10:04:05;;;;;;;9.20;4.45;;;18.10;99.90;;;;;;5091840;28;20388;-76
2023/06/05 10:06:33;;;;;;;8.65;4.30;;;18.10;99.90;;;;;;5092205;28;20127;-76
2023/06/05 10:09:00;;;;;;;12.38;4.60;;;18.10;99.90;;;;;;5091608;28;20111;-76
2023/06/05 10:11:26;;;;;;;;;;;18.30;99.90;;;;;;5111867;28;20082;-76
2023/06/05 10:13:53;;;;;;;10.48;3.53;;;18.50;99.90;;;;;;5112127;28;19948;-74
2023/06/05 10:16:20;;;;;;;13.57;4.07;;;18.70;99.90;;;;;;5112191;28;20062;-76
2023/06/05 10:18:48;;;;;;;8.75;3.47;;;18.70;99.90;;;;;;5112072;28;20077;-76
2023/06/05 10:21:18;;;;;;;6.60;3.90;;;18.80;99.90;;;;;;5112562;28;20061;-77
2023/06/05 10:23:49;;;;;;;7.43;3.25;;;18.70;99.90;;;;;;5112157;28;20027;-76
2023/06/05 10:26:33;;;;;;;9.57;3.70;;;18.80;99.90;;;;;;5093919;28;20028;-77
2023/06/05 10:29:12;;;;;;;11.48;3.80;;;18.80;99.90;;;;;;5112894;28;20521;-77
2023/06/05 10:31:47;;;;;;;14.40;3.65;;;18.90;99.90;;;;;;5074941;28;20027;-76
2023/06/05 10:34:27;;;;;;;9.25;3.25;;;18.90;99.90;;;;;;5073520;28;20035;-77
2023/06/05 10:37:23;;;;;;;9.02;3.33;;;18.80;99.90;;;;;;5092146;28;20115;-77
2023/06/05 10:39:50;;;;;;;7.88;3.35;;;18.80;99.90;;;;;;5098999;28;20031;-77
2023/06/05 10:42:24;;;;;;;5.90;3.28;;;18.90;99.90;;;;;;5112201;28;20110;-77
2023/06/05 10:44:50;;;;;;;9.38;3.80;;;19.00;99.90;;;;;;5112013;28;20023;-78
2023/06/05 10:47:34;;;;;;;7.85;3.40;;;19.20;99.90;;;;;;5111887;28;20047;-77
2023/06/05 10:50:21;;;;;;;8.50;3.45;;;19.40;99.90;;;;;;5112174;28;20055;-76
2023/06/05 10:52:48;;;;;;;8.15;3.70;;;19.40;99.90;;;;;;5111494;28;20016;-77
2023/06/05 10:55:15;;;;;;;7.80;3.28;;;19.50;99.90;;;;;;5111671;28;20334;-77
2023/06/05 10:58:16;;;;;;;7.28;2.83;;;19.70;99.90;;;;;;5111729;28;20491;-75
2023/06/05 11:01:18;;;;;;;6.93;3.30;;;19.60;99.90;;;;;;5082225;28;20088;-76
2023/06/05 11:03:57;;;;;;;10.45;3.22;;;19.80;99.90;;;;;;5090840;28;20070;-76
2023/06/05 11:06:24;;;;;;;7.10;3.58;;;20.00;99.90;;;;;;5091176;28;20035;-76
2023/06/05 11:09:12;;;;;;;7.47;3.28;;;19.90;99.90;;;;;;5091232;28;20020;-77
2023/06/05 11:11:58;;;;;;;9.05;3.63;;;20.00;99.90;;;;;;5070888;28;20437;-77
2023/06/05 11:14:25;;;;;;;;;;;19.80;99.90;;;;;;5052555;28;20039;-77
2023/06/05 11:16:51;;;;;;;9.60;3.55;;;19.70;99.90;;;;;;5070177;28;19904;-77
2023/06/05 11:19:20;;;;;;;6.70;3.22;;;19.80;99.90;;;;;;5071089;28;20032;-78
2023/06/05 11:22:11;;;;;;;9.02;3.47;;;19.80;99.90;;;;;;5071512;28;20021;-77
2023/06/05 11:24:38;;;;;;;7.75;3.20;;;19.80;99.90;;;;;;5086661;28;20119;-76
2023/06/05 11:27:08;;;;;;;12.05;3.35;;;19.60;99.90;;;;;;5071338;28;20017;-77
2023/06/05 11:29:35;;;;;;;8.15;3.28;;;19.70;99.90;;;;;;5072329;28;20043;-77
2023/06/05 11:32:10;;;;;;;12.73;3.70;;;19.70;99.90;;;;;;5091949;28;20077;-78
2023/06/05 11:34:36;;;;;;;7.50;3.55;;;19.70;99.90;;;;;;5091706;28;20103;-78
2023/06/05 11:37:29;;;;;;;7.32;3.22;;;19.70;99.90;;;;;;5091340;28;20021;-77
2023/06/05 11:39:55;;;;;;;8.55;3.42;;;19.50;99.90;;;;;;5096293;28;20040;-77
2023/06/05 11:42:23;;;;;;;10.57;3.72;;;19.50;99.90;;;;;;5111838;28;20106;-78
2023/06/05 11:44:49;;;;;;;8.80;3.88;;;19.30;99.90;;;;;;5111966;28;20020;-77
2023/06/05 11:47:25;;;;;;;9.70;3.63;;;19.30;99.90;;;;;;5116004;28;20019;-75
2023/06/05 11:49:52;;;;;;;13.23;3.40;;;19.20;99.90;;;;;;5115829;28;20066;-75
2023/06/05 11:52:21;;;;;;;9.45;3.47;;;19.30;99.90;;;;;;5115259;28;20035;-76
2023/06/05 11:55:05;;;;;;;15.63;3.83;;;19.20;99.90;;;;;;5096826;28;20340;-76
2023/06/05 11:57:44;;;;;;;9.27;3.90;;;19.30;99.90;;;;;;5114901;28;20393;-77
2023/06/05 12:00:11;;;;;;;6.95;3.40;;;19.40;99.90;;;;;;5108684;28;20028;-75
2023/06/05 12:02:44;;;;;;;9.43;3.45;;;19.40;99.90;;;;;;5076058;28;20428;-76
2023/06/05 12:05:10;;;;;;;9.80;3.78;;;19.40;99.90;;;;;;5094609;28;20028;-75
2023/06/05 12:07:37;;;;;;;10.32;4.05;;;19.40;99.90;;;;;;5094722;28;20032;-75
2023/06/05 12:10:12;;;;;;;8.25;3.20;;;19.40;99.90;;;;;;5103390;28;20039;-76
2023/06/05 12:12:51;;;;;;;12.77;4.07;;;19.50;99.90;;;;;;5115467;28;20472;-76
2023/06/05 12:15:21;;;;;;;6.68;3.40;;;19.50;99.90;;;;;;5114570;28;20351;-76
2023/06/05 12:17:51;;;;;;;12.95;3.47;;;19.50;99.90;;;;;;5114657;28;20032;-76
2023/06/05 12:20:19;;;;;;;8.23;3.50;;;19.50;99.90;;;;;;5115151;28;20023;-77
2023/06/05 12:22:45;;;;;;;9.90;3.75;;;19.50;99.90;;;;;;5115126;28;20031;-77
2023/06/05 12:25:22;;;;;;;10.20;3.47;;;19.50;99.90;;;;;;5115514;28;20028;-76
2023/06/05 12:27:49;;;;;;;6.38;3.20;;;19.60;99.90;;;;;;5115467;28;20020;-76
2023/06/05 12:30:18;;;;;;;8.60;3.55;;;19.80;99.90;;;;;;5108046;28;20024;-76
2023/06/05 12:32:45;;;;;;;10.48;3.35;;;20.00;99.90;;;;;;5094623;28;20047;-76
2023/06/05 12:35:27;;;;;;;12.07;3.22;;;20.20;99.90;;;;;;5094518;28;20028;-77
2023/06/05 12:38:00;;;;;;;9.50;3.72;;;20.50;99.90;;;;;;5094392;28;20035;-76
2023/06/05 12:40:26;;;;;;;11.52;3.67;;;20.60;99.90;;;;;;5106672;28;20109;-77
2023/06/05 12:42:52;;;;;;;14.27;3.45;;;20.70;99.90;;;;;;5114505;28;20036;-76
2023/06/05 12:45:18;;;;;;;10.82;3.75;;;21.00;99.90;;;;;;5114448;28;20049;-77
2023/06/05 12:47:44;;;;;;;11.60;3.65;;;21.20;99.90;;;;;;5114600;28;20509;-77
2023/06/05 12:50:11;;;;;;;8.63;3.95;;;21.30;99.90;;;;;;5114417;28;20028;-78
2023/06/05 12:52:41;;;;;;;15.35;3.40;;;21.50;99.90;;;;;;5114203;28;20023;-75
2023/06/05 12:55:08;;;;;;;9.43;3.78;;;21.60;99.90;;;;;;5095293;28;20081;-77